createdAt,value
2019-04-21T00:00:16.740Z,102339.90
2019-04-21T00:02:46.035Z,102336.05
2019-04-21T00:05:30.785Z,102337.35
2019-04-21T00:08:15.068Z,102340.46
2019-04-21T00:10:44.632Z,102333.94
2019-04-21T00:12:56.099Z,102337.07
2019-04-21T00:15:24.367Z,102332.83
2019-04-21T00:17:52.752Z,102344.06
2019-04-21T00:20:28.370Z,102333.89
2019-04-21T00:23:05.918Z,102335.88
2019-04-21T00:25:33.695Z,102331.52
2019-04-21T00:28:09.311Z,102329.59
2019-04-21T00:30:39.889Z,102323.91
2019-04-21T00:32:59.723Z,102320.16
2019-04-21T00:35:25.822Z,102324.08
2019-04-21T00:38:15.435Z,102312.59
2019-04-21T00:40:41.432Z,102309.91
2019-04-21T00:43:12.241Z,102304.34
2019-04-21T00:45:33.748Z,102302.68
2019-04-21T00:48:21.869Z,102300.26
2019-04-21T00:51:05.381Z,102296.02
2019-04-21T00:53:29.621Z,102289.64
2019-04-21T00:55:59.111Z,102291.17
2019-04-21T00:58:29.875Z,102286.27
2019-04-21T01:00:51.111Z,102287.06
2019-04-21T01:03:26.684Z,102283.48
2019-04-21T01:06:10.030Z,102289.59
2019-04-21T01:08:30.281Z,102282.47
2019-04-21T01:10:49.239Z,102278.95
2019-04-21T01:13:29.409Z,102281.37
2019-04-21T01:16:14.515Z,102273.95
2019-04-21T01:18:29.609Z,102264.37
2019-04-21T01:20:34.515Z,102266.50
2019-04-21T01:23:04.251Z,102267.12
2019-04-21T01:25:39.129Z,102261.23
2019-04-21T01:28:23.259Z,102264.31
2019-04-21T01:30:55.375Z,102270.94
2019-04-21T01:33:26.026Z,102272.96
2019-04-21T01:35:54.894Z,102265.09
2019-04-21T01:38:31.725Z,102271.03
2019-04-21T01:41:00.643Z,102279.67
2019-04-21T01:43:23.400Z,102279.76
2019-04-21T01:45:56.699Z,102275.12
2019-04-21T01:48:19.694Z,102271.70
2019-04-21T01:50:56.795Z,102271.64
2019-04-21T01:53:39.534Z,102282.48
2019-04-21T01:56:25.987Z,102280.13
2019-04-21T01:58:43.090Z,102275.84
2019-04-21T02:01:26.254Z,102282.84
2019-04-21T02:04:09.242Z,102277.80
2019-04-21T02:06:27.528Z,102278.53
2019-04-21T02:08:53.186Z,102274.28
2019-04-21T02:11:30.987Z,102274.80
2019-04-21T02:14:05.916Z,102269.83
2019-04-21T02:16:28.139Z,102277.94
2019-04-21T02:18:56.888Z,102279.80
2019-04-21T02:21:22.158Z,102280.89
2019-04-21T02:24:07.130Z,102280.93
2019-04-21T02:26:28.640Z,102281.41
2019-04-21T02:29:00.196Z,102282.59
2019-04-21T02:31:57.102Z,102277.63
2019-04-21T02:34:11.366Z,102275.65
2019-04-21T02:37:00.896Z,102270.57
2019-04-21T02:39:15.685Z,102271.25
2019-04-21T02:41:51.080Z,102273.53
2019-04-21T02:44:08.179Z,102263.78
2019-04-21T02:46:42.465Z,102262.19
2019-04-21T02:49:17.164Z,102255.69
2019-04-21T02:51:42.045Z,102248.58
2019-04-21T02:56:47.425Z,102243.77
2019-04-21T02:59:17.011Z,102235.70
2019-04-21T03:01:50.472Z,102240.63
2019-04-21T03:04:32.182Z,102239.52
2019-04-21T03:09:31.081Z,102230.83
2019-04-21T03:12:07.069Z,102233.37
2019-04-21T03:17:03.414Z,102229.80
2019-04-21T03:19:37.977Z,102215.70
2019-04-21T03:22:06.792Z,102217.31
2019-04-21T03:24:39.908Z,102215.00
2019-04-21T03:35:00.422Z,102199.63
2019-04-21T03:39:37.178Z,102187.69
2019-04-21T03:47:10.336Z,102189.48
2019-04-21T03:49:56.313Z,102188.22
2019-04-21T03:52:11.786Z,102189.08
2019-04-21T03:54:41.868Z,102177.45
2019-04-21T03:57:19.942Z,102183.99
2019-04-21T03:59:45.081Z,102183.19
2019-04-21T04:02:18.638Z,102180.67
2019-04-21T04:04:53.034Z,102184.83
2019-04-21T04:07:32.976Z,102179.48
2019-04-21T04:10:02.487Z,102180.52
2019-04-21T04:12:28.546Z,102177.02
2019-04-21T04:17:26.243Z,102172.74
2019-04-21T04:20:26.200Z,102168.03
2019-04-21T04:22:37.920Z,102174.66
2019-04-21T04:27:49.324Z,102162.53
2019-04-21T04:30:07.695Z,102167.77
2019-04-21T04:32:41.873Z,102166.41
2019-04-21T04:40:10.776Z,102159.98
2019-04-21T04:42:42.754Z,102163.44
2019-04-21T04:47:34.883Z,102158.06
2019-04-21T04:50:00.800Z,102155.90
2019-04-21T04:52:36.236Z,102153.18
2019-04-21T04:55:17.142Z,102150.02
2019-04-21T04:57:49.065Z,102146.83
2019-04-21T05:02:46.342Z,102147.76
2019-04-21T05:05:15.671Z,102147.53
2019-04-21T05:07:46.615Z,102149.72
2019-04-21T05:10:07.396Z,102146.16
2019-04-21T05:12:38.528Z,102141.14
2019-04-21T05:15:07.781Z,102135.52
2019-04-21T05:17:50.869Z,102141.80
2019-04-21T05:20:11.165Z,102136.45
2019-04-21T05:22:35.267Z,102139.05
2019-04-21T05:25:02.470Z,102137.31
2019-04-21T05:27:38.553Z,102138.80
2019-04-21T05:30:22.156Z,102134.06
2019-04-21T05:33:14.965Z,102136.92
2019-04-21T05:35:43.877Z,102128.06
2019-04-21T05:38:11.606Z,102131.06
2019-04-21T05:40:37.469Z,102127.73
2019-04-21T05:43:15.365Z,102131.71
2019-04-21T05:45:47.640Z,102132.58
2019-04-21T05:48:23.808Z,102125.13
2019-04-21T05:50:52.216Z,102131.19
2019-04-21T05:53:25.352Z,102139.34
2019-04-21T05:55:58.642Z,102132.62
2019-04-21T05:58:25.922Z,102126.47
2019-04-21T06:03:30.660Z,102123.55
2019-04-21T06:06:10.359Z,102123.55
2019-04-21T06:08:31.442Z,102123.33
2019-04-21T06:11:02.352Z,102127.52
2019-04-21T06:13:37.785Z,102122.14
2019-04-21T06:16:03.215Z,102120.62
2019-04-21T06:21:08.014Z,102123.72
2019-04-21T06:23:32.816Z,102123.72
2019-04-21T06:26:19.446Z,102119.50
2019-04-21T06:31:21.567Z,102113.39
2019-04-21T06:33:35.739Z,102109.01
2019-04-21T06:36:36.324Z,102108.91
2019-04-21T06:41:31.129Z,102113.33
2019-04-21T06:44:12.814Z,102115.06
2019-04-21T06:46:30.930Z,102107.53
2019-04-21T06:48:59.958Z,102111.73
2019-04-21T06:51:33.447Z,102109.38
2019-04-21T06:56:39.652Z,102102.24
2019-04-21T06:58:57.932Z,102092.00
2019-04-21T07:01:34.285Z,102078.23
2019-04-21T07:04:08.051Z,102076.39
2019-04-21T07:06:36.907Z,102080.59
2019-04-21T07:09:13.982Z,102083.56
2019-04-21T07:11:26.964Z,102084.36
2019-04-21T07:14:19.752Z,102078.27
2019-04-21T07:16:33.414Z,102072.98
2019-04-21T07:19:09.925Z,102081.47
2019-04-21T07:21:34.244Z,102077.45
2019-04-21T07:24:12.683Z,102078.53
2019-04-21T07:26:29.721Z,102075.73
2019-04-21T07:29:12.266Z,102071.95
2019-04-21T07:31:43.149Z,102071.32
2019-04-21T07:34:08.998Z,102071.08
2019-04-21T07:36:45.063Z,102069.48
2019-04-21T07:39:00.490Z,102065.00
2019-04-21T07:41:27.725Z,102060.24
2019-04-21T07:43:57.558Z,102060.58
2019-04-21T07:46:27.371Z,102056.53
2019-04-21T07:49:07.876Z,102051.44
2019-04-21T07:51:56.454Z,102049.09
2019-04-21T07:54:49.275Z,102043.72
2019-04-21T07:56:41.903Z,102043.25
2019-04-21T07:59:37.140Z,102038.21
2019-04-21T08:02:00.818Z,102038.72
2019-04-21T08:04:45.489Z,102032.00
2019-04-21T08:06:57.150Z,102024.45
2019-04-21T08:09:27.005Z,102025.46
2019-04-21T08:11:54.285Z,102021.75
2019-04-21T08:14:28.583Z,102014.84
2019-04-21T08:19:33.807Z,102012.03
2019-04-21T08:22:09.549Z,102008.15
2019-04-21T08:24:28.541Z,102003.61
2019-04-21T08:27:06.323Z,102003.48
2019-04-21T08:29:33.361Z,101997.80
2019-04-21T08:32:09.769Z,102006.63
2019-04-21T08:34:35.919Z,102003.27
2019-04-21T08:37:02.319Z,101995.99
2019-04-21T08:39:39.514Z,101997.27
2019-04-21T08:42:08.486Z,101995.13
2019-04-21T08:44:44.974Z,101989.10
2019-04-21T08:47:07.419Z,101985.53
2019-04-21T08:49:35.077Z,101982.97
2019-04-21T08:52:28.378Z,101987.11
2019-04-21T08:54:38.994Z,101983.84
2019-04-21T08:57:10.107Z,101982.42
2019-04-21T08:59:37.546Z,101982.46
2019-04-21T09:02:29.755Z,101975.45
2019-04-21T09:04:52.696Z,101971.06
2019-04-21T09:07:36.154Z,101973.20
2019-04-21T09:09:55.844Z,101963.81
2019-04-21T09:12:25.748Z,101958.47
2019-04-21T09:14:55.306Z,101957.06
2019-04-21T09:17:20.777Z,101958.89
2019-04-21T09:19:58.055Z,101955.80
2019-04-21T09:22:24.482Z,101956.56
2019-04-21T09:25:04.377Z,101944.65
2019-04-21T09:27:20.686Z,101947.30
2019-04-21T09:29:44.836Z,101945.26
2019-04-21T09:32:12.521Z,101940.69
2019-04-21T09:34:43.461Z,101939.84
2019-04-21T09:37:19.081Z,101937.02
2019-04-21T09:39:43.831Z,101927.94
2019-04-21T09:42:09.092Z,101930.88
2019-04-21T09:44:42.117Z,101922.31
2019-04-21T09:47:09.227Z,101922.81
2019-04-21T09:49:40.075Z,101928.64
2019-04-21T09:52:18.598Z,101924.80
2019-04-21T09:54:48.254Z,101917.45
2019-04-21T09:57:19.994Z,101919.95
2019-04-21T09:59:42.365Z,101908.88
2019-04-21T10:02:16.115Z,101905.59
2019-04-21T10:04:40.444Z,101899.05
2019-04-21T10:07:10.059Z,101899.87
2019-04-21T10:09:39.697Z,101898.25
2019-04-21T10:12:09.717Z,101888.13
2019-04-21T10:14:38.846Z,101884.75
2019-04-21T10:17:21.689Z,101879.17
2019-04-21T10:19:50.717Z,101878.77
2019-04-21T10:22:19.384Z,101871.21
2019-04-21T10:24:48.836Z,101864.27
2019-04-21T10:27:17.502Z,101868.02
2019-04-21T10:29:47.213Z,101867.05
2019-04-21T10:32:18.810Z,101865.45
2019-04-21T10:34:47.529Z,101855.50
2019-04-21T10:37:16.716Z,101843.95
2019-04-21T10:39:45.404Z,101843.94
2019-04-21T10:42:15.387Z,101838.77
2019-04-21T10:44:45.143Z,101838.77
2019-04-21T10:47:14.516Z,101836.16
2019-04-21T10:49:44.610Z,101831.31
2019-04-21T10:52:29.696Z,101827.57
2019-04-21T10:55:20.864Z,101813.52
2019-04-21T10:57:30.517Z,101817.31
2019-04-21T10:59:59.863Z,101814.11
2019-04-21T11:02:41.103Z,101803.81
2019-04-21T11:05:09.808Z,101808.66
2019-04-21T11:08:07.734Z,101795.35
2019-04-21T11:10:22.393Z,101794.14
2019-04-21T11:12:51.012Z,101791.58
2019-04-21T11:15:19.652Z,101782.05
2019-04-21T11:20:22.770Z,101779.86
2019-04-21T11:22:51.545Z,101779.44
2019-04-21T11:25:20.246Z,101775.78
2019-04-21T11:27:49.131Z,101771.34
2019-04-21T11:30:19.911Z,101766.10
2019-04-21T11:32:49.782Z,101766.98
2019-04-21T11:35:19.312Z,101762.77
2019-04-21T11:37:50.214Z,101774.80
2019-04-21T11:40:21.595Z,101767.17
2019-04-21T11:42:49.479Z,101756.95
2019-04-21T11:45:30.614Z,101753.61
2019-04-21T11:48:13.161Z,101752.33
2019-04-21T11:50:43.359Z,101743.26
2019-04-21T11:53:12.718Z,101743.58
2019-04-21T11:55:44.704Z,101738.91
2019-04-21T11:58:11.947Z,101740.90
2019-04-21T12:00:42.087Z,101743.09
2019-04-21T12:03:13.294Z,101738.97
2019-04-21T12:05:41.437Z,101727.77
2019-04-21T12:08:20.766Z,101729.11
2019-04-21T12:10:41.757Z,101721.17
2019-04-21T12:13:10.444Z,101727.97
2019-04-21T12:15:39.197Z,101725.45
2019-04-21T12:18:08.091Z,101723.73
2019-04-21T12:20:37.641Z,101719.52
2019-04-21T12:23:06.762Z,101712.64
2019-04-21T12:25:40.977Z,101714.66
2019-04-21T12:28:10.095Z,101708.73
2019-04-21T12:30:39.853Z,101699.36
2019-04-21T12:33:16.243Z,101698.22
2019-04-21T12:35:46.023Z,101689.62
2019-04-21T12:38:14.624Z,101689.58
2019-04-21T12:40:44.345Z,101685.65
2019-04-21T12:43:12.967Z,101684.92
2019-04-21T12:45:41.991Z,101684.47
2019-04-21T12:48:10.571Z,101678.02
2019-04-21T12:50:41.927Z,101676.91
2019-04-21T12:53:13.839Z,101670.53
2019-04-21T12:55:44.477Z,101663.61
2019-04-21T12:58:11.195Z,101664.60
2019-04-21T13:00:40.917Z,101665.62
2019-04-21T13:03:09.904Z,101650.83
2019-04-21T13:05:39.862Z,101648.17
2019-04-21T13:08:09.235Z,101640.72
2019-04-21T13:10:38.142Z,101640.80
2019-04-21T13:13:08.025Z,101640.56
2019-04-21T13:15:37.609Z,101640.41
2019-04-21T13:18:06.289Z,101637.48
2019-04-21T13:20:35.960Z,101623.87
2019-04-21T13:23:05.879Z,101628.83
2019-04-21T13:25:34.419Z,101622.88
2019-04-21T13:28:02.969Z,101615.44
2019-04-21T13:30:32.605Z,101608.59
2019-04-21T13:33:01.291Z,101607.55
2019-04-21T13:35:30.984Z,101602.14
2019-04-21T13:38:00.535Z,101600.22
2019-04-21T13:40:53.009Z,101588.90
2019-04-21T13:43:08.707Z,101588.90
2019-04-21T13:45:37.716Z,101588.11
2019-04-21T13:48:06.597Z,101583.13
2019-04-21T13:50:35.376Z,101573.78
2019-04-21T13:53:04.943Z,101574.81
2019-04-21T13:55:36.751Z,101573.94
2019-04-21T13:58:04.313Z,101567.23
2019-04-21T14:00:33.819Z,101568.97
2019-04-21T14:03:02.925Z,101560.78
2019-04-21T14:05:32.687Z,101561.30
2019-04-21T14:08:03.029Z,101552.83
2019-04-21T14:10:31.745Z,101545.91
2019-04-21T14:13:00.564Z,101535.84
2019-04-21T14:15:30.393Z,101533.30
2019-04-21T14:17:58.964Z,101528.14
2019-04-21T14:20:27.859Z,101531.39
2019-04-21T14:23:10.076Z,101524.38
2019-04-21T14:25:27.979Z,101522.17
2019-04-21T14:27:57.848Z,101517.08
2019-04-21T14:30:28.447Z,101514.79
2019-04-21T14:32:58.128Z,101508.60
2019-04-21T14:35:27.152Z,101501.43
2019-04-21T14:37:56.580Z,101503.01
2019-04-21T14:40:27.755Z,101499.43
2019-04-21T14:42:56.213Z,101496.54
2019-04-21T14:45:30.424Z,101494.48
2019-04-21T14:48:00.978Z,101495.25
2019-04-21T14:50:40.104Z,101480.98
2019-04-21T14:53:17.867Z,101478.87
2019-04-21T14:55:46.821Z,101474.95
2019-04-21T14:58:17.194Z,101478.02
2019-04-21T15:00:52.956Z,101477.57
2019-04-21T15:03:21.728Z,101475.72
2019-04-21T15:05:51.548Z,101472.50
2019-04-21T15:08:21.488Z,101473.09
2019-04-21T15:10:50.125Z,101472.56
2019-04-21T15:13:19.690Z,101465.80
2019-04-21T15:15:48.265Z,101465.36
2019-04-21T15:18:17.019Z,101460.98
2019-04-21T15:20:48.299Z,101452.91
2019-04-21T15:23:15.944Z,101447.05
2019-04-21T15:25:45.935Z,101457.23
2019-04-21T15:28:15.841Z,101449.99
2019-04-21T15:30:44.750Z,101445.78
2019-04-21T15:33:13.383Z,101434.23
2019-04-21T15:35:42.836Z,101436.86
2019-04-21T15:38:11.839Z,101426.67
2019-04-21T15:40:49.641Z,101428.37
2019-04-21T15:43:10.736Z,101422.49
2019-04-21T15:45:39.263Z,101422.39
2019-04-21T15:48:07.871Z,101420.27
2019-04-21T15:50:37.701Z,101421.84
2019-04-21T15:53:08.175Z,101421.66
2019-04-21T15:55:41.349Z,101412.53
2019-04-21T15:58:28.350Z,101403.28
2019-04-21T16:01:16.585Z,101405.67
2019-04-21T16:03:45.227Z,101398.88
2019-04-21T16:06:13.883Z,101398.88
2019-04-21T16:08:46.585Z,101403.48
2019-04-21T16:11:13.645Z,101399.72
2019-04-21T16:13:43.601Z,101404.65
2019-04-21T16:16:12.691Z,101402.32
2019-04-21T16:18:42.516Z,101397.22
2019-04-21T16:21:11.702Z,101393.72
2019-04-21T16:23:40.529Z,101387.91
2019-04-21T16:26:10.760Z,101387.91
2019-04-21T16:28:39.617Z,101382.70
2019-04-21T16:31:08.142Z,101379.30
2019-04-21T16:33:36.868Z,101378.88
2019-04-21T16:36:08.327Z,101372.95
2019-04-21T16:38:35.913Z,101378.99
2019-04-21T16:41:08.426Z,101372.65
2019-04-21T16:43:35.373Z,101363.88
2019-04-21T16:46:04.647Z,101364.23
2019-04-21T16:48:33.808Z,101359.90
2019-04-21T16:51:03.658Z,101357.24
2019-04-21T16:53:39.837Z,101351.42
2019-04-21T16:56:19.108Z,101350.09
2019-04-21T16:58:56.603Z,101348.52
2019-04-21T17:01:31.592Z,101343.98
2019-04-21T17:04:00.361Z,101349.61
2019-04-21T17:06:29.210Z,101346.50
2019-04-21T17:08:59.019Z,101345.02
2019-04-21T17:11:31.577Z,101348.48
2019-04-21T17:13:58.263Z,101347.73
2019-04-21T17:16:52.863Z,101342.62
2019-04-21T17:19:05.322Z,101340.44
2019-04-21T17:21:28.106Z,101349.21
2019-04-21T17:23:56.844Z,101339.08
2019-04-21T17:26:26.789Z,101343.29
2019-04-21T17:28:56.704Z,101342.34
2019-04-21T17:31:26.549Z,101338.81
2019-04-21T17:34:02.094Z,101340.03
2019-04-21T17:36:26.930Z,101340.00
2019-04-21T17:38:55.855Z,101338.63
2019-04-21T17:41:33.409Z,101336.23
2019-04-21T17:43:56.027Z,101340.02
2019-04-21T17:46:34.537Z,101339.02
2019-04-21T17:48:55.076Z,101334.84
2019-04-21T17:51:25.705Z,101337.81
2019-04-21T17:54:00.327Z,101330.66
2019-04-21T17:56:53.705Z,101337.16
2019-04-21T17:59:17.695Z,101335.55
2019-04-21T18:01:50.154Z,101330.75
2019-04-21T18:04:21.178Z,101334.23
2019-04-21T18:07:02.388Z,101333.61
2019-04-21T18:09:44.155Z,101336.64
2019-04-21T18:12:07.547Z,101336.77
2019-04-21T18:14:20.686Z,101339.80
2019-04-21T18:16:51.641Z,101343.94
2019-04-21T18:19:24.747Z,101343.94
2019-04-21T18:21:56.867Z,101346.34
2019-04-21T18:24:35.396Z,101354.72
2019-04-21T18:26:57.365Z,101350.23
2019-04-21T18:29:23.962Z,101353.64
2019-04-21T18:31:54.197Z,101352.11
2019-04-21T18:34:43.847Z,101359.63
2019-04-21T18:37:14.720Z,101357.74
2019-04-21T18:39:59.970Z,101360.65
2019-04-21T18:42:39.843Z,101362.87
2019-04-21T18:45:34.526Z,101355.56
2019-04-21T18:47:47.075Z,101357.64
2019-04-21T18:50:02.056Z,101353.39
2019-04-21T18:52:48.304Z,101362.16
2019-04-21T18:55:18.961Z,101363.28
2019-04-21T18:57:42.343Z,101359.92
2019-04-21T19:00:15.367Z,101358.31
2019-04-21T19:02:45.314Z,101359.56
2019-04-21T19:05:13.072Z,101364.09
2019-04-21T19:08:00.565Z,101367.67
2019-04-21T19:10:26.706Z,101367.22
2019-04-21T19:15:20.382Z,101373.58
2019-04-21T19:18:27.692Z,101372.98
2019-04-21T19:20:29.490Z,101377.56
2019-04-21T19:23:00.306Z,101373.21
2019-04-21T19:25:25.384Z,101380.33
2019-04-21T19:27:59.064Z,101380.91
2019-04-21T19:30:36.822Z,101375.80
2019-04-21T19:33:01.071Z,101372.34
2019-04-21T19:35:14.836Z,101370.14
2019-04-21T19:37:52.056Z,101366.75
2019-04-21T19:40:31.019Z,101365.61
2019-04-21T19:42:55.749Z,101361.97
2019-04-21T19:45:32.199Z,101370.22
2019-04-21T19:48:06.767Z,101366.02
2019-04-21T19:50:39.644Z,101363.59
2019-04-21T19:52:55.094Z,101365.74
2019-04-21T19:55:18.129Z,101367.23
2019-04-21T19:57:47.079Z,101359.28
2019-04-21T20:00:17.517Z,101358.38
2019-04-21T20:02:46.432Z,101356.47
2019-04-21T20:05:24.293Z,101353.29
2019-04-21T20:08:04.127Z,101346.45
2019-04-21T20:10:33.428Z,101346.06
2019-04-21T20:13:08.623Z,101342.59
2019-04-21T20:15:41.967Z,101339.09
2019-04-21T20:18:02.624Z,101329.76
2019-04-21T20:20:17.577Z,101328.39
2019-04-21T20:22:50.323Z,101320.83
2019-04-21T20:25:20.886Z,101322.24
2019-04-21T20:27:55.347Z,101318.41
2019-04-21T20:30:37.745Z,101324.80
2019-04-21T20:33:20.255Z,101318.90
2019-04-21T20:35:45.101Z,101318.24
2019-04-21T20:38:02.007Z,101315.09
2019-04-21T20:40:33.212Z,101313.05
2019-04-21T20:43:12.451Z,101309.41
2019-04-21T20:45:41.729Z,101312.61
2019-04-21T20:47:54.610Z,101304.59
2019-04-21T20:50:33.893Z,101311.13
2019-04-21T20:53:12.298Z,101307.56
2019-04-21T20:55:35.453Z,101308.73
2019-04-21T20:58:04.264Z,101304.78
2019-04-21T21:00:54.653Z,101309.39
2019-04-21T21:03:11.911Z,101313.38
2019-04-21T21:05:39.992Z,101306.64
2019-04-21T21:08:17.957Z,101306.31
2019-04-21T21:10:38.621Z,101304.73
2019-04-21T21:13:21.126Z,101294.47
2019-04-21T21:15:51.409Z,101299.24
2019-04-21T21:18:35.028Z,101294.55
2019-04-21T21:20:44.789Z,101294.20
2019-04-21T21:23:11.521Z,101295.03
2019-04-21T21:26:01.924Z,101299.72
2019-04-21T21:28:09.238Z,101291.02
2019-04-21T21:30:37.539Z,101288.54
2019-04-21T21:33:18.519Z,101287.63
2019-04-21T21:35:43.772Z,101289.95
2019-04-21T21:38:19.937Z,101292.03
2019-04-21T21:40:45.555Z,101284.39
2019-04-21T21:43:01.558Z,101291.25
2019-04-21T21:45:39.398Z,101287.94
2019-04-21T21:48:20.853Z,101285.20
2019-04-21T21:50:43.093Z,101287.84
2019-04-21T21:53:08.644Z,101285.20
2019-04-21T21:55:34.104Z,101288.20
2019-04-21T21:58:03.925Z,101285.23
2019-04-21T22:00:36.983Z,101276.43
2019-04-21T22:03:16.320Z,101280.53
2019-04-21T22:05:46.584Z,101281.45
2019-04-21T22:08:04.826Z,101276.73
2019-04-21T22:10:34.866Z,101278.59
2019-04-21T22:13:08.867Z,101276.52
2019-04-21T22:15:35.529Z,101277.44
2019-04-21T22:18:24.616Z,101277.75
2019-04-21T22:20:55.197Z,101271.02
2019-04-21T22:23:12.853Z,101272.17
2019-04-21T22:25:37.974Z,101275.48
2019-04-21T22:28:05.682Z,101275.34
2019-04-21T22:30:40.362Z,101270.11
2019-04-21T22:33:10.113Z,101274.22
2019-04-21T22:35:42.587Z,101275.80
2019-04-21T22:38:20.860Z,101276.23
2019-04-21T22:40:51.446Z,101278.97
2019-04-21T22:43:19.490Z,101282.77
2019-04-21T22:45:37.588Z,101284.92
2019-04-21T22:48:13.537Z,101278.05
2019-04-21T22:50:40.581Z,101279.18
2019-04-21T22:53:10.627Z,101283.97
2019-04-21T22:55:40.853Z,101279.84
2019-04-21T22:58:09.737Z,101280.30
2019-04-21T23:00:44.651Z,101267.64
2019-04-21T23:03:13.831Z,101274.37
2019-04-21T23:05:41.694Z,101268.97
2019-04-21T23:08:10.939Z,101268.83
2019-04-21T23:10:43.806Z,101271.22
2019-04-21T23:13:17.841Z,101272.02
2019-04-21T23:15:46.093Z,101271.28
2019-04-21T23:18:28.811Z,101268.77
2019-04-21T23:21:00.309Z,101262.88
2019-04-21T23:23:37.305Z,101267.23
2019-04-21T23:25:56.023Z,101266.06
2019-04-21T23:28:34.572Z,101256.95
2019-04-21T23:31:00.875Z,101257.37
2019-04-21T23:33:15.825Z,101260.88
2019-04-21T23:35:46.054Z,101256.23
2019-04-21T23:38:14.760Z,101254.94
2019-04-21T23:40:49.986Z,101249.02
2019-04-21T23:43:19.437Z,101256.61
2019-04-21T23:45:46.479Z,101256.12
2019-04-21T23:48:28.606Z,101246.20
2019-04-21T23:50:51.338Z,101250.27
2019-04-21T23:53:15.468Z,101248.52
2019-04-21T23:55:45.218Z,101244.94
2019-04-21T23:58:21.594Z,101240.73
